createdAt,value
2024-01-28T00:00:16.228Z,92.61
2024-01-28T00:01:22.266Z,92.40
2024-01-28T00:02:08.465Z,92.23
2024-01-28T00:02:42.934Z,92.28
2024-01-28T00:03:18.798Z,92.15
2024-01-28T00:03:53.879Z,91.36
2024-01-28T00:05:01.902Z,90.64
2024-01-28T00:05:35.666Z,90.45
2024-01-28T00:06:10.588Z,90.36
2024-01-28T00:06:44.448Z,90.28
2024-01-28T00:07:23.205Z,90.31
2024-01-28T00:08:00.294Z,90.60
2024-01-28T00:08:43.314Z,90.41
2024-01-28T00:09:18.140Z,90.89
2024-01-28T00:09:51.759Z,91.41
2024-01-28T00:10:25.839Z,91.69
2024-01-28T00:11:02.285Z,91.93
2024-01-28T00:11:36.019Z,91.32
2024-01-28T00:12:25.387Z,90.39
2024-01-28T00:12:59.685Z,90.48
2024-01-28T00:13:36.030Z,90.38
2024-01-28T00:14:09.755Z,89.76
2024-01-28T00:14:43.570Z,88.67
2024-01-28T00:15:21.266Z,88.60
2024-01-28T00:19:45.153Z,89.60
2024-01-28T00:20:19.110Z,89.22
2024-01-28T00:20:52.903Z,89.32
2024-01-28T00:21:27.126Z,89.32
2024-01-28T00:22:02.304Z,89.35
2024-01-28T00:22:36.413Z,89.32
2024-01-28T00:23:24.816Z,89.51
2024-01-28T00:24:00.977Z,89.53
2024-01-28T00:24:35.207Z,89.30
2024-01-28T00:25:09.807Z,89.04
2024-01-28T00:25:45.311Z,88.40
2024-01-28T00:26:20.180Z,88.68
2024-01-28T00:27:07.210Z,89.35
2024-01-28T00:27:41.103Z,89.66
2024-01-28T00:28:14.761Z,89.77
2024-01-28T00:28:48.539Z,89.85
2024-01-28T00:29:30.206Z,89.83
2024-01-28T00:30:05.674Z,89.83
2024-01-28T00:30:50.901Z,89.66
2024-01-28T00:31:25.430Z,89.48
2024-01-28T00:32:00.636Z,89.60
2024-01-28T00:32:34.955Z,89.68
2024-01-28T00:33:08.876Z,89.73
2024-01-28T00:33:42.712Z,89.69
2024-01-28T00:34:30.299Z,89.78
2024-01-28T00:35:05.682Z,89.87
2024-01-28T00:35:39.490Z,90.02
2024-01-28T00:36:17.400Z,90.04
2024-01-28T00:36:51.145Z,89.97
2024-01-28T00:37:25.734Z,90.19
2024-01-28T00:38:13.544Z,90.40
2024-01-28T00:38:47.372Z,90.41
2024-01-28T00:39:23.141Z,89.58
2024-01-28T00:39:56.703Z,89.12
2024-01-28T00:40:30.991Z,88.91
2024-01-28T00:41:05.335Z,88.73
2024-01-28T00:41:56.780Z,89.20
2024-01-28T00:42:30.793Z,89.20
2024-01-28T00:43:05.085Z,89.26
2024-01-28T00:43:38.977Z,89.18
2024-01-28T00:44:13.012Z,89.24
2024-01-28T00:44:46.605Z,89.57
2024-01-28T00:45:41.830Z,89.86
2024-01-28T00:46:17.856Z,90.13
2024-01-28T00:46:56.907Z,90.51
2024-01-28T00:47:30.659Z,90.79
2024-01-28T00:48:04.659Z,90.50
2024-01-28T00:49:16.618Z,89.97
2024-01-28T00:49:50.856Z,89.30
2024-01-28T00:50:25.190Z,89.53
2024-01-28T00:51:01.494Z,89.64
2024-01-28T00:51:35.579Z,89.69
2024-01-28T00:52:09.586Z,90.30
2024-01-28T00:52:58.332Z,91.17
2024-01-28T00:53:32.147Z,90.87
2024-01-28T00:54:06.029Z,90.65
2024-01-28T00:54:40.009Z,90.53
2024-01-28T00:55:14.250Z,90.58
2024-01-28T00:55:50.476Z,90.78
2024-01-28T00:56:40.250Z,91.30
2024-01-28T00:57:14.562Z,91.54
2024-01-28T00:57:48.159Z,91.58
2024-01-28T00:58:22.298Z,91.52
2024-01-28T00:58:55.874Z,91.45
2024-01-28T00:59:29.761Z,91.21
2024-01-28T01:00:17.769Z,90.87
2024-01-28T01:00:51.675Z,90.72
2024-01-28T01:01:25.885Z,90.44
2024-01-28T01:01:59.518Z,90.25
2024-01-28T01:02:33.036Z,90.18
2024-01-28T01:03:06.465Z,90.39
2024-01-28T01:04:00.382Z,90.62
2024-01-28T01:04:34.591Z,90.54
2024-01-28T01:05:08.604Z,90.90
2024-01-28T01:05:44.299Z,90.79
2024-01-28T01:06:19.074Z,91.04
2024-01-28T01:06:52.947Z,90.96
2024-01-28T01:07:40.890Z,91.08
2024-01-28T01:08:14.752Z,91.24
2024-01-28T01:08:48.325Z,91.03
2024-01-28T01:09:22.481Z,90.98
2024-01-28T01:09:57.735Z,91.27
2024-01-28T01:10:31.036Z,91.51
2024-01-28T01:11:18.437Z,91.42
2024-01-28T01:11:51.860Z,91.45
2024-01-28T01:12:25.747Z,91.71
2024-01-28T01:12:59.699Z,91.50
2024-01-28T01:13:33.953Z,91.68
2024-01-28T01:14:07.545Z,91.89
2024-01-28T01:14:59.141Z,91.99
2024-01-28T01:15:33.112Z,91.83
2024-01-28T01:16:06.963Z,91.82
2024-01-28T01:16:40.265Z,91.77
2024-01-28T01:17:13.850Z,91.69
2024-01-28T01:17:50.962Z,91.66
2024-01-28T01:18:40.650Z,91.38
2024-01-28T01:19:14.270Z,91.14
2024-01-28T01:19:48.625Z,90.57
2024-01-28T01:20:30.574Z,90.26
2024-01-28T01:21:05.532Z,90.34
2024-01-28T01:21:39.119Z,90.43
2024-01-28T01:22:27.966Z,90.42
2024-01-28T01:23:01.945Z,90.52
2024-01-28T01:23:35.464Z,90.49
2024-01-28T01:24:09.516Z,90.53
2024-01-28T01:24:43.434Z,90.42
2024-01-28T01:25:17.182Z,90.42
2024-01-28T01:26:05.710Z,90.56
2024-01-28T01:26:39.485Z,90.61
2024-01-28T01:27:13.296Z,90.67
2024-01-28T01:27:50.384Z,90.90
2024-01-28T01:28:25.822Z,90.94
2024-01-28T01:28:59.473Z,91.01
2024-01-28T01:29:45.529Z,91.04
2024-01-28T01:30:19.949Z,91.03
2024-01-28T01:30:53.727Z,90.96
2024-01-28T01:31:27.433Z,91.05
2024-01-28T01:32:00.910Z,91.28
2024-01-28T01:32:37.208Z,91.14
2024-01-28T01:33:26.404Z,91.33
2024-01-28T01:34:00.262Z,91.09
2024-01-28T01:34:34.525Z,91.06
2024-01-28T01:35:13.204Z,91.01
2024-01-28T01:35:46.990Z,91.03
2024-01-28T01:36:21.398Z,91.05
2024-01-28T01:37:08.657Z,91.11
2024-01-28T01:37:44.445Z,91.04
2024-01-28T01:38:18.768Z,91.20
2024-01-28T01:38:52.662Z,91.13
2024-01-28T01:39:26.289Z,91.19
2024-01-28T01:40:00.258Z,91.39
2024-01-28T01:40:57.287Z,91.64
2024-01-28T01:41:31.087Z,91.90
2024-01-28T01:42:04.842Z,91.82
2024-01-28T01:42:39.932Z,91.51
2024-01-28T01:43:13.637Z,91.49
2024-01-28T01:43:47.227Z,91.41
2024-01-28T01:44:30.363Z,91.50
2024-01-28T01:45:04.181Z,91.68
2024-01-28T01:45:44.716Z,91.68
2024-01-28T01:46:19.157Z,91.73
2024-01-28T01:46:59.037Z,91.79
2024-01-28T01:47:34.002Z,91.75
2024-01-28T01:48:20.622Z,91.48
2024-01-28T01:48:55.282Z,91.45
2024-01-28T01:49:30.160Z,90.96
2024-01-28T01:50:04.584Z,90.80
2024-01-28T01:50:38.820Z,90.49
2024-01-28T01:51:13.279Z,90.48
2024-01-28T01:55:36.718Z,90.73
2024-01-28T01:56:11.875Z,90.62
2024-01-28T01:56:46.594Z,90.58
2024-01-28T01:57:20.714Z,90.55
2024-01-28T01:57:56.224Z,90.53
2024-01-28T01:58:31.413Z,90.63
2024-01-28T01:59:17.461Z,89.95
2024-01-28T01:59:51.546Z,89.85
2024-01-28T02:00:26.108Z,89.85
2024-01-28T02:01:04.464Z,89.77
2024-01-28T02:01:39.133Z,90.05
2024-01-28T02:02:13.349Z,90.25
2024-01-28T02:02:57.242Z,90.52
2024-01-28T02:03:32.445Z,90.97
2024-01-28T02:04:07.150Z,91.09
2024-01-28T02:04:41.360Z,91.26
2024-01-28T02:05:17.549Z,92.26
2024-01-28T02:05:52.016Z,92.22
2024-01-28T02:06:38.183Z,92.15
2024-01-28T02:07:12.186Z,92.23
2024-01-28T02:07:46.015Z,92.16
2024-01-28T02:08:20.263Z,91.94
2024-01-28T02:08:54.424Z,91.64
2024-01-28T02:09:28.840Z,91.49
2024-01-28T02:10:21.276Z,91.32
2024-01-28T02:10:55.093Z,91.39
2024-01-28T02:11:30.162Z,91.36
2024-01-28T02:12:04.018Z,91.35
2024-01-28T02:12:38.172Z,91.23
2024-01-28T02:13:12.193Z,91.34
2024-01-28T02:13:59.487Z,91.31
2024-01-28T02:14:33.538Z,91.40
2024-01-28T02:15:11.901Z,91.43
2024-01-28T02:15:49.752Z,91.51
2024-01-28T02:16:25.454Z,91.44
2024-01-28T02:17:00.964Z,91.65
2024-01-28T02:17:45.148Z,91.97
2024-01-28T02:18:19.090Z,92.11
2024-01-28T02:18:53.439Z,92.12
2024-01-28T02:19:29.975Z,92.13
2024-01-28T02:20:04.314Z,92.31
2024-01-28T02:20:38.322Z,92.74
2024-01-28T02:21:26.821Z,92.29
2024-01-28T02:22:01.013Z,92.30
2024-01-28T02:22:34.951Z,92.27
2024-01-28T02:23:09.189Z,91.92
2024-01-28T02:23:42.982Z,91.48
2024-01-28T02:24:16.696Z,91.47
2024-01-28T02:25:11.723Z,91.41
2024-01-28T02:25:54.848Z,91.47
2024-01-28T02:26:28.880Z,91.45
2024-01-28T02:27:03.102Z,91.46
2024-01-28T02:27:37.840Z,91.38
2024-01-28T02:28:48.903Z,91.29
2024-01-28T02:29:22.473Z,91.21
2024-01-28T02:29:56.486Z,91.22
2024-01-28T02:30:31.251Z,90.96
2024-01-28T02:31:05.612Z,90.87
2024-01-28T02:31:39.315Z,90.98
2024-01-28T02:32:33.195Z,90.97
2024-01-28T02:33:07.355Z,90.90
2024-01-28T02:33:41.232Z,90.91
2024-01-28T02:34:15.022Z,90.86
2024-01-28T02:34:48.780Z,90.85
2024-01-28T02:35:22.321Z,90.95
2024-01-28T02:36:10.565Z,90.88
2024-01-28T02:36:44.277Z,90.79
2024-01-28T02:37:21.165Z,90.61
2024-01-28T02:37:55.491Z,90.59
2024-01-28T02:38:29.681Z,90.69
2024-01-28T02:39:03.500Z,90.70
2024-01-28T02:39:51.617Z,90.89
2024-01-28T02:40:25.616Z,90.91
2024-01-28T02:41:00.746Z,90.83
2024-01-28T02:41:34.637Z,90.31
2024-01-28T02:42:10.630Z,90.35
2024-01-28T02:42:45.440Z,90.54
2024-01-28T02:43:37.798Z,90.65
2024-01-28T02:44:11.399Z,90.67
2024-01-28T02:44:45.119Z,90.52
2024-01-28T02:45:20.206Z,90.53
2024-01-28T02:45:58.691Z,90.39
2024-01-28T02:47:16.502Z,90.45
2024-01-28T02:47:51.578Z,90.44
2024-01-28T02:48:26.223Z,90.34
2024-01-28T02:49:00.325Z,90.17
2024-01-28T02:49:34.698Z,90.18
2024-01-28T02:50:09.251Z,90.28
2024-01-28T02:50:56.458Z,90.44
2024-01-28T02:51:30.649Z,90.58
2024-01-28T02:52:05.067Z,90.63
2024-01-28T02:52:38.908Z,90.59
2024-01-28T02:53:13.773Z,90.69
2024-01-28T02:53:47.969Z,90.72
2024-01-28T02:54:34.848Z,90.97
2024-01-28T02:55:09.548Z,91.04
2024-01-28T02:55:43.917Z,90.98
2024-01-28T02:56:18.072Z,90.97
2024-01-28T02:56:53.570Z,91.21
2024-01-28T02:57:27.193Z,91.68
2024-01-28T03:01:55.435Z,91.04
2024-01-28T03:02:29.089Z,90.87
2024-01-28T03:03:05.391Z,90.81
2024-01-28T03:03:39.645Z,90.75
2024-01-28T03:04:15.151Z,90.74
2024-01-28T03:04:49.214Z,90.57
2024-01-28T03:05:36.943Z,90.42
2024-01-28T03:06:12.705Z,90.27
2024-01-28T03:06:47.235Z,90.12
2024-01-28T03:07:21.001Z,90.11
2024-01-28T03:07:55.250Z,90.08
2024-01-28T03:08:28.834Z,90.13
2024-01-28T03:09:16.277Z,90.03
2024-01-28T03:09:52.138Z,90.00
2024-01-28T03:10:26.007Z,89.87
2024-01-28T03:11:00.391Z,89.79
2024-01-28T03:11:36.037Z,89.58
2024-01-28T03:12:11.089Z,89.41
2024-01-28T03:12:59.381Z,89.45
2024-01-28T03:13:35.942Z,89.73
2024-01-28T03:14:10.122Z,89.86
2024-01-28T03:14:44.449Z,89.92
2024-01-28T03:15:19.752Z,90.01
2024-01-28T03:15:55.564Z,90.52
2024-01-28T03:16:50.805Z,90.52
2024-01-28T03:17:26.199Z,90.37
2024-01-28T03:18:01.388Z,90.48
2024-01-28T03:18:35.209Z,90.56
2024-01-28T03:19:09.147Z,90.51
2024-01-28T03:20:22.063Z,90.46
2024-01-28T03:20:56.431Z,90.41
2024-01-28T03:21:30.655Z,90.49
2024-01-28T03:22:04.664Z,90.38
2024-01-28T03:22:38.085Z,90.47
2024-01-28T03:23:11.828Z,90.67
2024-01-28T03:23:59.942Z,90.77
2024-01-28T03:24:33.592Z,90.78
2024-01-28T03:25:07.513Z,90.89
2024-01-28T03:25:40.891Z,90.78
2024-01-28T03:26:14.561Z,90.73
2024-01-28T03:26:49.036Z,90.59
2024-01-28T03:27:45.645Z,90.53
2024-01-28T03:28:19.752Z,90.64
2024-01-28T03:28:53.445Z,90.65
2024-01-28T03:29:27.224Z,90.69
2024-01-28T03:30:01.247Z,90.79
2024-01-28T03:30:35.346Z,90.89
2024-01-28T03:31:19.891Z,91.07
2024-01-28T03:31:54.456Z,91.10
2024-01-28T03:32:29.190Z,91.04
2024-01-28T03:33:03.301Z,91.07
2024-01-28T03:33:37.099Z,91.01
2024-01-28T03:34:10.798Z,90.92
2024-01-28T03:34:59.080Z,90.78
2024-01-28T03:35:32.678Z,90.70
2024-01-28T03:36:06.955Z,90.59
2024-01-28T03:36:41.292Z,90.15
2024-01-28T03:37:15.394Z,89.88
2024-01-28T03:37:49.050Z,89.55
2024-01-28T03:38:43.176Z,89.18
2024-01-28T03:39:17.193Z,89.04
2024-01-28T03:39:51.229Z,88.95
2024-01-28T03:40:25.255Z,89.06
2024-01-28T03:40:59.414Z,89.50
2024-01-28T03:41:33.485Z,89.66
2024-01-28T03:42:21.694Z,90.45
2024-01-28T03:42:56.023Z,91.48
2024-01-28T03:43:30.044Z,92.94
2024-01-28T03:44:04.488Z,93.29
2024-01-28T03:44:38.341Z,93.16
2024-01-28T03:45:12.687Z,92.51
2024-01-28T03:45:58.721Z,91.82
2024-01-28T03:46:39.612Z,91.38
2024-01-28T03:47:21.235Z,91.37
2024-01-28T03:47:55.187Z,91.14
2024-01-28T03:48:29.591Z,90.96
2024-01-28T03:49:05.493Z,90.98
2024-01-28T03:49:55.065Z,90.85
2024-01-28T03:50:29.134Z,90.88
2024-01-28T03:51:03.561Z,90.82
2024-01-28T03:51:37.692Z,90.73
2024-01-28T03:52:11.520Z,90.89
2024-01-28T03:52:45.114Z,90.71
2024-01-28T03:53:36.681Z,90.79
2024-01-28T03:54:10.197Z,90.97
2024-01-28T03:54:44.172Z,91.00
2024-01-28T03:55:17.900Z,90.96
2024-01-28T03:55:54.439Z,91.27
2024-01-28T03:56:28.162Z,91.21
2024-01-28T03:57:18.628Z,91.10
2024-01-28T03:57:56.469Z,91.15
2024-01-28T03:58:30.844Z,91.22
2024-01-28T03:59:05.021Z,90.94
2024-01-28T03:59:42.107Z,90.82
2024-01-28T04:00:16.794Z,90.66
2024-01-28T04:01:02.024Z,90.64
2024-01-28T04:01:35.904Z,90.59
2024-01-28T04:02:10.122Z,90.68
2024-01-28T04:02:45.931Z,90.66
2024-01-28T04:03:21.433Z,90.62
2024-01-28T04:03:59.006Z,90.63
2024-01-28T04:04:46.637Z,90.81
2024-01-28T04:05:21.371Z,90.89
2024-01-28T04:05:56.800Z,90.90
2024-01-28T04:06:30.869Z,90.88
2024-01-28T04:07:05.866Z,90.94
2024-01-28T04:07:40.122Z,91.13
2024-01-28T04:08:24.574Z,91.05
2024-01-28T04:08:58.621Z,91.06
2024-01-28T04:09:32.450Z,90.92
2024-01-28T04:10:06.557Z,91.06
2024-01-28T04:10:40.239Z,91.21
2024-01-28T04:11:13.960Z,91.39
2024-01-28T04:12:01.856Z,91.36
2024-01-28T04:12:37.210Z,91.36
2024-01-28T04:13:13.533Z,91.39
2024-01-28T04:13:47.062Z,91.40
2024-01-28T04:14:20.570Z,91.49
2024-01-28T04:14:54.121Z,91.51
2024-01-28T04:15:47.213Z,91.87
2024-01-28T04:16:22.378Z,92.00
2024-01-28T04:16:56.658Z,92.10
2024-01-28T04:17:33.577Z,91.96
2024-01-28T04:18:11.583Z,92.02
2024-01-28T04:18:45.467Z,92.04
2024-01-28T04:19:32.991Z,92.02
2024-01-28T04:20:07.151Z,91.94
2024-01-28T04:20:41.228Z,92.01
2024-01-28T04:21:15.805Z,92.04
2024-01-28T04:21:49.969Z,92.03
2024-01-28T04:22:24.370Z,92.07
2024-01-28T04:23:16.721Z,92.04
2024-01-28T04:23:50.448Z,92.32
2024-01-28T04:24:24.281Z,92.14
2024-01-28T04:24:58.171Z,92.12
2024-01-28T04:25:31.755Z,91.88
2024-01-28T04:26:05.590Z,91.79
2024-01-28T04:26:55.079Z,91.78
2024-01-28T04:27:29.678Z,91.67
2024-01-28T04:28:03.875Z,91.72
2024-01-28T04:28:37.495Z,91.70
2024-01-28T04:29:12.466Z,91.52
2024-01-28T04:29:46.084Z,91.27
2024-01-28T04:30:33.236Z,91.03
2024-01-28T04:31:09.430Z,90.82
2024-01-28T04:31:44.295Z,90.44
2024-01-28T04:32:19.133Z,90.41
2024-01-28T04:33:03.646Z,90.11
2024-01-28T04:34:22.168Z,90.41
2024-01-28T04:34:56.157Z,90.46
2024-01-28T04:35:31.085Z,90.38
2024-01-28T04:36:07.434Z,90.46
2024-01-28T04:36:41.460Z,90.50
2024-01-28T04:37:15.329Z,90.50
2024-01-28T04:38:03.407Z,90.52
2024-01-28T04:38:37.722Z,90.41
2024-01-28T04:39:11.959Z,90.68
2024-01-28T04:39:46.127Z,90.66
2024-01-28T04:40:20.218Z,90.61
2024-01-28T04:40:55.131Z,90.61
2024-01-28T04:41:42.865Z,90.79
2024-01-28T04:42:16.635Z,90.87
2024-01-28T04:42:50.790Z,90.96
2024-01-28T04:43:25.297Z,90.92
2024-01-28T04:43:59.533Z,91.14
2024-01-28T04:44:34.399Z,91.32
2024-01-28T04:45:22.955Z,91.25
2024-01-28T04:45:57.514Z,91.34
2024-01-28T04:46:31.743Z,91.31
2024-01-28T04:47:05.605Z,91.46
2024-01-28T04:47:40.530Z,91.37
2024-01-28T04:48:18.082Z,91.33
2024-01-28T04:49:05.906Z,91.23
2024-01-28T04:49:40.895Z,91.19
2024-01-28T04:50:15.952Z,91.08
2024-01-28T04:50:50.086Z,90.93
2024-01-28T04:51:24.615Z,90.63
2024-01-28T04:51:59.607Z,90.18
2024-01-28T04:52:45.952Z,90.11
2024-01-28T04:53:20.012Z,90.22
2024-01-28T04:53:53.785Z,90.29
2024-01-28T04:54:27.692Z,90.24
2024-01-28T04:55:01.597Z,90.26
2024-01-28T04:55:35.638Z,90.38
2024-01-28T04:56:26.999Z,90.59
2024-01-28T04:57:02.813Z,90.63
2024-01-28T04:57:36.951Z,91.08
2024-01-28T04:58:10.932Z,90.93
2024-01-28T04:58:46.267Z,91.17
2024-01-28T04:59:21.326Z,91.34
2024-01-28T05:00:13.367Z,91.52
2024-01-28T05:00:47.897Z,91.74
2024-01-28T05:01:22.414Z,91.64
2024-01-28T05:01:56.586Z,91.93
2024-01-28T05:02:30.455Z,92.03
2024-01-28T05:03:04.506Z,92.65
2024-01-28T05:07:31.212Z,90.93
2024-01-28T05:08:05.548Z,90.90
2024-01-28T05:08:39.314Z,91.09
2024-01-28T05:09:13.738Z,91.13
2024-01-28T05:09:47.923Z,91.27
2024-01-28T05:10:21.858Z,91.58
2024-01-28T05:11:09.644Z,91.87
2024-01-28T05:11:44.371Z,92.20
2024-01-28T05:12:20.219Z,92.39
2024-01-28T05:12:54.029Z,92.13
2024-01-28T05:13:27.550Z,92.24
2024-01-28T05:14:01.663Z,92.04
2024-01-28T05:14:49.611Z,92.10
2024-01-28T05:15:23.771Z,92.49
2024-01-28T05:15:58.322Z,92.34
2024-01-28T05:16:32.701Z,92.48
2024-01-28T05:17:06.781Z,92.40
2024-01-28T05:17:41.640Z,92.38
2024-01-28T05:18:31.778Z,91.93
2024-01-28T05:19:08.371Z,91.78
2024-01-28T05:19:43.390Z,91.68
2024-01-28T05:20:18.114Z,91.28
2024-01-28T05:20:51.828Z,91.37
2024-01-28T05:21:25.627Z,91.47
2024-01-28T05:22:21.809Z,91.35
2024-01-28T05:23:01.114Z,91.33
2024-01-28T05:23:34.801Z,91.20
2024-01-28T05:24:08.821Z,91.35
2024-01-28T05:24:43.938Z,91.53
2024-01-28T05:25:57.885Z,91.59
2024-01-28T05:26:32.777Z,90.97
2024-01-28T05:27:06.496Z,90.82
2024-01-28T05:27:40.916Z,91.09
2024-01-28T05:28:14.691Z,91.17
2024-01-28T05:28:48.219Z,91.18
2024-01-28T05:29:40.675Z,91.14
2024-01-28T05:30:14.707Z,91.13
2024-01-28T05:30:48.575Z,91.00
2024-01-28T05:31:22.741Z,91.13
2024-01-28T05:31:56.739Z,90.96
2024-01-28T05:32:31.265Z,90.92
2024-01-28T05:33:18.892Z,90.96
2024-01-28T05:33:54.300Z,90.99
2024-01-28T05:34:29.577Z,91.09
2024-01-28T05:35:05.644Z,91.02
2024-01-28T05:35:39.339Z,91.01
2024-01-28T05:36:14.988Z,91.00
2024-01-28T05:37:01.668Z,90.99
2024-01-28T05:37:38.780Z,91.03
2024-01-28T05:38:12.907Z,91.05
2024-01-28T05:38:46.421Z,91.18
2024-01-28T05:39:20.387Z,91.26
2024-01-28T05:39:54.144Z,91.33
2024-01-28T05:40:42.960Z,91.35
2024-01-28T05:41:17.890Z,91.43
2024-01-28T05:41:52.116Z,91.52
2024-01-28T05:42:26.241Z,91.56
2024-01-28T05:43:00.488Z,91.55
2024-01-28T05:43:34.555Z,91.47
2024-01-28T05:44:22.448Z,91.38
2024-01-28T05:44:56.054Z,91.50
2024-01-28T05:45:29.472Z,91.56
2024-01-28T05:46:03.578Z,91.65
2024-01-28T05:46:37.276Z,91.67
2024-01-28T05:47:14.222Z,91.44
2024-01-28T05:48:03.447Z,91.32
2024-01-28T05:48:38.118Z,91.34
2024-01-28T05:49:13.341Z,91.19
2024-01-28T05:49:47.257Z,91.07
2024-01-28T05:50:21.006Z,91.02
2024-01-28T05:50:54.854Z,91.00
2024-01-28T05:51:41.015Z,90.98
2024-01-28T05:52:16.210Z,90.85
2024-01-28T05:52:52.390Z,90.85
2024-01-28T05:53:26.414Z,90.85
2024-01-28T05:54:00.556Z,90.86
2024-01-28T05:54:35.122Z,90.88
2024-01-28T05:55:21.188Z,90.81
2024-01-28T05:55:55.517Z,90.83
2024-01-28T05:56:29.850Z,90.78
2024-01-28T05:57:03.677Z,90.82
2024-01-28T05:57:37.917Z,90.85
2024-01-28T05:58:11.847Z,90.94
2024-01-28T05:58:59.217Z,90.92
2024-01-28T05:59:33.403Z,90.77
2024-01-28T06:00:08.152Z,90.75
2024-01-28T06:00:42.915Z,90.74
2024-01-28T06:01:16.798Z,90.84
2024-01-28T06:01:51.589Z,90.77
2024-01-28T06:02:41.480Z,90.77
2024-01-28T06:03:15.742Z,90.74
2024-01-28T06:03:50.536Z,90.86
2024-01-28T06:04:24.956Z,90.56
2024-01-28T06:05:00.374Z,90.36
2024-01-28T06:05:35.413Z,90.42
2024-01-28T06:06:23.370Z,90.52
2024-01-28T06:06:57.254Z,90.47
2024-01-28T06:07:31.300Z,90.59
2024-01-28T06:08:07.037Z,90.67
2024-01-28T06:08:42.633Z,90.46
2024-01-28T06:09:16.288Z,90.44
2024-01-28T06:10:05.806Z,90.42
2024-01-28T06:10:39.360Z,90.49
2024-01-28T06:11:13.465Z,90.61
2024-01-28T06:11:47.396Z,90.87
2024-01-28T06:12:21.113Z,91.10
2024-01-28T06:12:54.415Z,90.92
2024-01-28T06:13:42.931Z,91.32
2024-01-28T06:14:16.420Z,91.46
2024-01-28T06:14:50.069Z,91.66
2024-01-28T06:15:23.995Z,91.62
2024-01-28T06:15:57.768Z,91.91
2024-01-28T06:16:31.397Z,91.92
2024-01-28T06:17:24.223Z,92.07
2024-01-28T06:17:59.004Z,92.03
2024-01-28T06:18:33.054Z,92.11
2024-01-28T06:19:06.920Z,91.99
2024-01-28T06:19:40.596Z,91.87
2024-01-28T06:20:14.447Z,91.88
2024-01-28T06:21:02.266Z,91.94
2024-01-28T06:21:36.015Z,92.09
2024-01-28T06:22:10.076Z,92.21
2024-01-28T06:22:44.035Z,92.01
2024-01-28T06:23:17.736Z,91.85
2024-01-28T06:23:51.674Z,91.80
2024-01-28T06:24:44.185Z,91.85
2024-01-28T06:25:17.901Z,91.81
2024-01-28T06:25:51.452Z,91.70
2024-01-28T06:26:25.362Z,91.70
2024-01-28T06:27:01.283Z,91.57
2024-01-28T06:27:40.005Z,91.48
2024-01-28T06:28:25.674Z,91.51
2024-01-28T06:28:59.587Z,91.42
2024-01-28T06:29:34.267Z,91.50
2024-01-28T06:30:10.454Z,91.61
2024-01-28T06:30:45.622Z,91.65
2024-01-28T06:31:22.213Z,91.71
2024-01-28T06:32:07.752Z,91.83
2024-01-28T06:32:41.534Z,91.79
2024-01-28T06:33:17.410Z,91.83
2024-01-28T06:33:51.803Z,91.82
2024-01-28T06:34:25.854Z,91.85
2024-01-28T06:34:59.441Z,91.79
2024-01-28T06:35:47.369Z,91.67
2024-01-28T06:36:21.843Z,91.64
2024-01-28T06:36:55.322Z,91.65
2024-01-28T06:37:29.193Z,91.62
2024-01-28T06:38:09.948Z,91.67
2024-01-28T06:38:48.017Z,91.52
2024-01-28T06:39:31.996Z,91.50
2024-01-28T06:40:06.325Z,91.33
2024-01-28T06:40:40.177Z,90.81
2024-01-28T06:41:15.654Z,90.38
2024-01-28T06:41:51.046Z,90.20
2024-01-28T06:42:26.656Z,89.93
2024-01-28T06:43:14.249Z,89.84
2024-01-28T06:43:50.305Z,89.72
2024-01-28T06:44:27.007Z,89.82
2024-01-28T06:45:01.182Z,90.02
2024-01-28T06:45:36.365Z,90.25
2024-01-28T06:46:49.474Z,90.33
2024-01-28T06:47:23.204Z,90.41
2024-01-28T06:47:57.646Z,90.28
2024-01-28T06:48:33.038Z,90.24
2024-01-28T06:49:07.765Z,90.17
2024-01-28T06:49:43.168Z,90.13
2024-01-28T06:50:31.173Z,90.07
2024-01-28T06:51:06.522Z,90.26
2024-01-28T06:51:46.175Z,90.36
2024-01-28T06:52:19.815Z,90.44
2024-01-28T06:52:53.360Z,90.63
2024-01-28T06:53:27.155Z,90.74
2024-01-28T06:54:11.682Z,90.70
2024-01-28T06:54:47.324Z,90.69
2024-01-28T06:55:21.602Z,90.66
2024-01-28T06:55:55.547Z,90.73
2024-01-28T06:56:29.480Z,90.70
2024-01-28T06:57:03.240Z,90.25
2024-01-28T06:57:51.226Z,90.00
2024-01-28T06:58:24.836Z,90.06
2024-01-28T06:59:01.662Z,90.05
2024-01-28T06:59:36.866Z,90.05
2024-01-28T07:00:12.346Z,90.01
2024-01-28T07:00:46.614Z,90.23
2024-01-28T07:01:32.277Z,90.49
2024-01-28T07:02:06.388Z,90.76
2024-01-28T07:02:40.770Z,91.00
2024-01-28T07:03:14.667Z,91.18
2024-01-28T07:03:52.365Z,91.38
2024-01-28T07:04:27.335Z,91.79
2024-01-28T07:05:14.493Z,92.81
2024-01-28T07:05:48.337Z,92.89
2024-01-28T07:06:22.465Z,92.91
2024-01-28T07:06:56.641Z,92.88
2024-01-28T07:07:30.876Z,92.93
2024-01-28T07:08:07.230Z,93.18
2024-01-28T07:08:55.721Z,93.04
2024-01-28T07:09:30.885Z,92.96
2024-01-28T07:10:06.697Z,92.69
2024-01-28T07:10:40.430Z,92.63
2024-01-28T07:11:14.818Z,92.84
2024-01-28T07:11:49.758Z,92.59
2024-01-28T07:12:36.564Z,92.15
2024-01-28T07:13:11.356Z,91.94
2024-01-28T07:13:45.289Z,91.81
2024-01-28T07:14:19.109Z,91.75
2024-01-28T07:14:53.556Z,91.43
2024-01-28T07:15:28.381Z,91.40
2024-01-28T07:16:14.862Z,91.34
2024-01-28T07:16:48.769Z,91.38
2024-01-28T07:17:22.407Z,91.49
2024-01-28T07:17:56.110Z,91.44
2024-01-28T07:18:30.998Z,91.78
2024-01-28T07:19:05.855Z,91.49
2024-01-28T07:19:54.467Z,90.99
2024-01-28T07:20:28.867Z,90.83
2024-01-28T07:21:03.908Z,90.85
2024-01-28T07:21:37.945Z,91.22
2024-01-28T07:22:13.355Z,91.37
2024-01-28T07:22:47.585Z,91.03
2024-01-28T07:23:31.518Z,90.71
2024-01-28T07:24:07.917Z,90.59
2024-01-28T07:24:42.932Z,90.41
2024-01-28T07:25:17.820Z,90.40
2024-01-28T07:25:51.743Z,90.76
2024-01-28T07:26:26.904Z,90.86
2024-01-28T07:27:16.645Z,90.92
2024-01-28T07:27:50.983Z,90.84
2024-01-28T07:28:24.423Z,91.08
2024-01-28T07:28:58.208Z,91.30
2024-01-28T07:29:31.738Z,91.58
2024-01-28T07:30:12.312Z,91.62
2024-01-28T07:31:01.254Z,91.68
2024-01-28T07:31:35.188Z,91.59
2024-01-28T07:32:15.031Z,91.38
2024-01-28T07:32:49.785Z,91.41
2024-01-28T07:33:23.997Z,91.36
2024-01-28T07:34:34.810Z,91.45
2024-01-28T07:35:09.256Z,91.50
2024-01-28T07:35:43.562Z,91.55
2024-01-28T07:36:17.589Z,91.22
2024-01-28T07:36:52.840Z,91.48
2024-01-28T07:37:27.095Z,91.89
2024-01-28T07:38:17.766Z,92.29
2024-01-28T07:38:51.169Z,92.28
2024-01-28T07:39:25.227Z,92.30
2024-01-28T07:39:58.792Z,92.33
2024-01-28T07:40:32.327Z,92.56
2024-01-28T07:41:06.696Z,92.08
2024-01-28T07:42:02.658Z,92.38
2024-01-28T07:42:36.150Z,92.59
2024-01-28T07:43:09.817Z,92.67
2024-01-28T07:43:43.774Z,93.12
2024-01-28T07:44:17.361Z,93.78
2024-01-28T07:44:50.717Z,95.45
2024-01-28T07:49:18.366Z,95.04
2024-01-28T07:49:53.017Z,95.13
2024-01-28T07:50:27.904Z,94.61
2024-01-28T07:51:02.857Z,94.26
2024-01-28T07:51:40.203Z,93.88
2024-01-28T07:52:15.359Z,93.43
2024-01-28T07:52:59.348Z,93.49
2024-01-28T07:53:32.486Z,93.75
2024-01-28T07:54:06.153Z,93.45
2024-01-28T07:54:40.085Z,95.75
2024-01-28T07:55:13.738Z,96.19
2024-01-28T07:55:47.489Z,95.63
2024-01-28T07:56:36.377Z,95.13
2024-01-28T07:57:09.880Z,94.64
2024-01-28T07:57:43.581Z,94.07
2024-01-28T07:58:17.572Z,94.27
2024-01-28T07:58:51.164Z,94.27
2024-01-28T07:59:25.108Z,94.81
2024-01-28T08:00:17.372Z,93.61
2024-01-28T08:00:51.577Z,92.32
2024-01-28T08:01:28.341Z,91.89
2024-01-28T08:02:02.021Z,91.63
2024-01-28T08:02:35.371Z,91.32
2024-01-28T08:03:09.215Z,91.12
2024-01-28T08:04:04.034Z,91.88
2024-01-28T08:04:40.314Z,91.87
2024-01-28T08:05:14.063Z,91.96
2024-01-28T08:05:47.417Z,92.28
2024-01-28T08:06:21.009Z,93.12
2024-01-28T08:06:54.988Z,93.93
2024-01-28T08:07:36.563Z,93.67
2024-01-28T08:08:11.383Z,92.56
2024-01-28T08:08:46.285Z,92.01
2024-01-28T08:09:23.259Z,91.58
2024-01-28T08:09:57.768Z,91.08
2024-01-28T08:10:31.361Z,91.00
2024-01-28T08:11:20.426Z,91.16
2024-01-28T08:11:54.382Z,91.72
2024-01-28T08:12:28.224Z,92.01
2024-01-28T08:13:01.870Z,92.01
2024-01-28T08:13:35.886Z,90.96
2024-01-28T08:14:11.151Z,91.43
2024-01-28T08:15:01.915Z,91.51
2024-01-28T08:15:35.348Z,91.24
2024-01-28T08:16:09.164Z,91.60
2024-01-28T08:16:43.062Z,91.53
2024-01-28T08:17:16.635Z,88.47
2024-01-28T08:17:52.648Z,87.56
2024-01-28T08:18:42.921Z,85.29